sensor_id;sensor_type;location;lat;lon;timestamp;P1;durP1;ratioP1;P2;durP2;ratioP2
48006;SDS011;33771;48.180;11.400;2022-10-10T00:00:41;16.83;;;10.10;;
48006;SDS011;33771;48.180;11.400;2022-10-10T00:03:07;23.10;;;11.57;;
48006;SDS011;33771;48.180;11.400;2022-10-10T00:05:33;23.13;;;12.53;;
48006;SDS011;33771;48.180;11.400;2022-10-10T00:08:00;32.23;;;14.83;;
48006;SDS011;33771;48.180;11.400;2022-10-10T00:10:28;33.97;;;15.43;;
48006;SDS011;33771;48.180;11.400;2022-10-10T00:12:53;35.87;;;15.90;;
48006;SDS011;33771;48.180;11.400;2022-10-10T00:15:19;34.70;;;15.80;;
48006;SDS011;33771;48.180;11.400;2022-10-10T00:17:44;36.53;;;15.60;;
48006;SDS011;33771;48.180;11.400;2022-10-10T00:20:11;36.90;;;15.53;;
48006;SDS011;33771;48.180;11.400;2022-10-10T00:22:38;36.60;;;16.03;;
48006;SDS011;33771;48.180;11.400;2022-10-10T00:25:05;31.07;;;15.03;;
48006;SDS011;33771;48.180;11.400;2022-10-10T00:27:31;38.83;;;15.50;;
48006;SDS011;33771;48.180;11.400;2022-10-10T00:29:57;30.57;;;15.07;;
48006;SDS011;33771;48.180;11.400;2022-10-10T00:32:23;40.20;;;17.00;;
48006;SDS011;33771;48.180;11.400;2022-10-10T00:34:49;36.07;;;15.07;;
48006;SDS011;33771;48.180;11.400;2022-10-10T00:37:15;36.97;;;15.37;;
48006;SDS011;33771;48.180;11.400;2022-10-10T00:39:40;29.57;;;15.27;;
48006;SDS011;33771;48.180;11.400;2022-10-10T00:42:06;43.77;;;16.10;;
48006;SDS011;33771;48.180;11.400;2022-10-10T00:44:33;40.83;;;15.03;;
48006;SDS011;33771;48.180;11.400;2022-10-10T00:47:01;34.63;;;15.13;;
48006;SDS011;33771;48.180;11.400;2022-10-10T00:49:26;32.57;;;15.30;;
48006;SDS011;33771;48.180;11.400;2022-10-10T00:51:54;34.87;;;14.73;;
48006;SDS011;33771;48.180;11.400;2022-10-10T00:54:23;37.33;;;15.40;;
48006;SDS011;33771;48.180;11.400;2022-10-10T00:56:54;32.83;;;16.20;;
48006;SDS011;33771;48.180;11.400;2022-10-10T00:59:23;32.60;;;15.60;;
48006;SDS011;33771;48.180;11.400;2022-10-10T01:01:50;30.93;;;15.63;;
48006;SDS011;33771;48.180;11.400;2022-10-10T01:04:27;36.43;;;15.87;;
48006;SDS011;33771;48.180;11.400;2022-10-10T01:06:54;33.20;;;16.00;;
48006;SDS011;33771;48.180;11.400;2022-10-10T01:09:20;30.07;;;15.43;;
48006;SDS011;33771;48.180;11.400;2022-10-10T01:11:48;33.07;;;14.60;;
48006;SDS011;33771;48.180;11.400;2022-10-10T01:17:18;38.77;;;16.13;;
48006;SDS011;33771;48.180;11.400;2022-10-10T01:25:38;39.67;;;15.20;;
48006;SDS011;33771;48.180;11.400;2022-10-10T01:31:07;36.20;;;15.20;;
48006;SDS011;33771;48.180;11.400;2022-10-10T01:33:48;38.13;;;16.37;;
48006;SDS011;33771;48.180;11.400;2022-10-10T01:36:39;28.50;;;14.53;;
48006;SDS011;33771;48.180;11.400;2022-10-10T01:39:37;31.47;;;15.40;;
48006;SDS011;33771;48.180;11.400;2022-10-10T01:42:19;33.17;;;17.07;;
48006;SDS011;33771;48.180;11.400;2022-10-10T01:44:55;32.20;;;16.53;;
48006;SDS011;33771;48.180;11.400;2022-10-10T01:47:21;34.13;;;16.37;;
48006;SDS011;33771;48.180;11.400;2022-10-10T01:49:48;35.13;;;16.20;;
48006;SDS011;33771;48.180;11.400;2022-10-10T01:52:27;30.53;;;15.23;;
48006;SDS011;33771;48.180;11.400;2022-10-10T02:00:26;37.30;;;16.27;;
48006;SDS011;33771;48.180;11.400;2022-10-10T02:03:12;35.27;;;16.07;;
48006;SDS011;33771;48.180;11.400;2022-10-10T02:08:27;36.83;;;16.03;;
48006;SDS011;33771;48.180;11.400;2022-10-10T02:11:00;31.70;;;16.30;;
48006;SDS011;33771;48.180;11.400;2022-10-10T02:13:43;29.93;;;16.67;;
48006;SDS011;33771;48.180;11.400;2022-10-10T02:16:14;34.27;;;17.33;;
48006;SDS011;33771;48.180;11.400;2022-10-10T02:18:45;26.87;;;16.23;;
48006;SDS011;33771;48.180;11.400;2022-10-10T02:21:12;27.97;;;17.10;;
48006;SDS011;33771;48.180;11.400;2022-10-10T02:23:40;30.23;;;17.53;;
48006;SDS011;33771;48.180;11.400;2022-10-10T02:26:07;30.10;;;17.13;;
48006;SDS011;33771;48.180;11.400;2022-10-10T02:31:15;27.10;;;17.10;;
48006;SDS011;33771;48.180;11.400;2022-10-10T02:33:49;28.00;;;17.38;;
48006;SDS011;33771;48.180;11.400;2022-10-10T02:36:22;21.67;;;16.08;;
48006;SDS011;33771;48.180;11.400;2022-10-10T02:38:51;22.93;;;16.27;;
48006;SDS011;33771;48.180;11.400;2022-10-10T02:41:17;20.83;;;16.17;;
48006;SDS011;33771;48.180;11.400;2022-10-10T02:43:45;21.05;;;14.85;;
48006;SDS011;33771;48.180;11.400;2022-10-10T02:46:13;21.60;;;15.90;;
48006;SDS011;33771;48.180;11.400;2022-10-10T02:48:39;24.40;;;17.07;;
48006;SDS011;33771;48.180;11.400;2022-10-10T02:51:05;23.52;;;16.20;;
48006;SDS011;33771;48.180;11.400;2022-10-10T02:53:31;20.70;;;15.45;;
48006;SDS011;33771;48.180;11.400;2022-10-10T02:55:58;20.52;;;16.52;;
48006;SDS011;33771;48.180;11.400;2022-10-10T02:58:23;22.55;;;17.05;;
48006;SDS011;33771;48.180;11.400;2022-10-10T03:00:49;21.07;;;16.37;;
48006;SDS011;33771;48.180;11.400;2022-10-10T03:03:14;20.17;;;15.40;;
48006;SDS011;33771;48.180;11.400;2022-10-10T03:05:40;19.52;;;16.30;;
48006;SDS011;33771;48.180;11.400;2022-10-10T03:08:05;21.33;;;16.67;;
48006;SDS011;33771;48.180;11.400;2022-10-10T03:10:31;18.83;;;14.93;;
48006;SDS011;33771;48.180;11.400;2022-10-10T03:12:57;22.90;;;15.93;;
48006;SDS011;33771;48.180;11.400;2022-10-10T03:15:23;22.27;;;15.43;;
48006;SDS011;33771;48.180;11.400;2022-10-10T03:17:48;21.90;;;15.57;;
48006;SDS011;33771;48.180;11.400;2022-10-10T03:20:14;21.80;;;16.92;;
48006;SDS011;33771;48.180;11.400;2022-10-10T03:22:39;21.30;;;16.13;;
48006;SDS011;33771;48.180;11.400;2022-10-10T03:25:05;23.58;;;16.40;;
48006;SDS011;33771;48.180;11.400;2022-10-10T03:27:31;21.85;;;16.23;;
48006;SDS011;33771;48.180;11.400;2022-10-10T03:29:56;22.08;;;15.90;;
48006;SDS011;33771;48.180;11.400;2022-10-10T03:32:22;18.70;;;14.88;;
48006;SDS011;33771;48.180;11.400;2022-10-10T03:34:48;21.53;;;15.17;;
48006;SDS011;33771;48.180;11.400;2022-10-10T03:37:13;21.17;;;15.15;;
48006;SDS011;33771;48.180;11.400;2022-10-10T03:39:39;19.23;;;14.50;;
48006;SDS011;33771;48.180;11.400;2022-10-10T03:42:04;19.50;;;14.73;;
48006;SDS011;33771;48.180;11.400;2022-10-10T03:44:30;20.30;;;15.35;;
48006;SDS011;33771;48.180;11.400;2022-10-10T03:46:55;18.63;;;13.98;;
48006;SDS011;33771;48.180;11.400;2022-10-10T03:49:21;18.83;;;14.93;;
48006;SDS011;33771;48.180;11.400;2022-10-10T03:51:47;19.77;;;15.45;;
48006;SDS011;33771;48.180;11.400;2022-10-10T03:54:12;20.52;;;15.85;;
48006;SDS011;33771;48.180;11.400;2022-10-10T03:56:38;20.80;;;15.93;;
48006;SDS011;33771;48.180;11.400;2022-10-10T03:59:03;20.88;;;15.30;;
48006;SDS011;33771;48.180;11.400;2022-10-10T04:01:30;20.98;;;16.05;;
48006;SDS011;33771;48.180;11.400;2022-10-10T04:03:56;20.75;;;16.40;;
48006;SDS011;33771;48.180;11.400;2022-10-10T04:06:22;22.85;;;16.58;;
48006;SDS011;33771;48.180;11.400;2022-10-10T04:08:47;19.05;;;15.35;;
48006;SDS011;33771;48.180;11.400;2022-10-10T04:11:13;26.73;;;16.90;;
48006;SDS011;33771;48.180;11.400;2022-10-10T04:13:39;27.20;;;16.23;;
48006;SDS011;33771;48.180;11.400;2022-10-10T04:16:04;21.77;;;15.40;;
48006;SDS011;33771;48.180;11.400;2022-10-10T04:18:30;22.07;;;15.43;;
48006;SDS011;33771;48.180;11.400;2022-10-10T04:20:55;31.87;;;14.30;;
48006;SDS011;33771;48.180;11.400;2022-10-10T04:23:21;18.93;;;13.07;;
48006;SDS011;33771;48.180;11.400;2022-10-10T04:25:49;21.52;;;12.43;;
48006;SDS011;33771;48.180;11.400;2022-10-10T04:28:15;18.63;;;12.60;;
48006;SDS011;33771;48.180;11.400;2022-10-10T04:30:41;25.10;;;12.90;;
48006;SDS011;33771;48.180;11.400;2022-10-10T04:33:07;25.95;;;12.75;;
48006;SDS011;33771;48.180;11.400;2022-10-10T04:35:33;20.52;;;11.80;;
48006;SDS011;33771;48.180;11.400;2022-10-10T04:37:59;15.30;;;11.10;;
48006;SDS011;33771;48.180;11.400;2022-10-10T04:40:25;32.87;;;11.40;;
48006;SDS011;33771;48.180;11.400;2022-10-10T04:42:51;32.10;;;12.60;;
48006;SDS011;33771;48.180;11.400;2022-10-10T04:45:16;28.70;;;11.60;;
48006;SDS011;33771;48.180;11.400;2022-10-10T04:47:42;23.93;;;11.33;;
48006;SDS011;33771;48.180;11.400;2022-10-10T04:50:08;14.00;;;11.43;;
48006;SDS011;33771;48.180;11.400;2022-10-10T04:52:33;19.53;;;11.87;;
48006;SDS011;33771;48.180;11.400;2022-10-10T04:54:59;13.63;;;10.67;;
48006;SDS011;33771;48.180;11.400;2022-10-10T04:57:25;15.10;;;10.80;;
48006;SDS011;33771;48.180;11.400;2022-10-10T04:59:50;16.60;;;11.40;;
48006;SDS011;33771;48.180;11.400;2022-10-10T05:02:16;19.67;;;9.83;;
48006;SDS011;33771;48.180;11.400;2022-10-10T05:04:42;13.10;;;9.90;;
48006;SDS011;33771;48.180;11.400;2022-10-10T05:07:07;17.80;;;10.47;;
48006;SDS011;33771;48.180;11.400;2022-10-10T05:09:33;25.27;;;10.67;;
48006;SDS011;33771;48.180;11.400;2022-10-10T05:11:59;16.33;;;10.57;;
48006;SDS011;33771;48.180;11.400;2022-10-10T05:14:25;11.30;;;9.50;;
48006;SDS011;33771;48.180;11.400;2022-10-10T05:16:51;15.70;;;9.87;;
48006;SDS011;33771;48.180;11.400;2022-10-10T05:19:16;25.30;;;10.10;;
48006;SDS011;33771;48.180;11.400;2022-10-10T05:21:42;61.10;;;10.20;;
48006;SDS011;33771;48.180;11.400;2022-10-10T05:24:08;24.87;;;9.50;;
48006;SDS011;33771;48.180;11.400;2022-10-10T05:26:33;13.50;;;8.70;;
48006;SDS011;33771;48.180;11.400;2022-10-10T05:28:59;68.70;;;10.43;;
48006;SDS011;33771;48.180;11.400;2022-10-10T05:31:25;15.37;;;9.97;;
48006;SDS011;33771;48.180;11.400;2022-10-10T05:33:51;21.27;;;9.60;;
48006;SDS011;33771;48.180;11.400;2022-10-10T05:36:16;69.60;;;10.17;;
48006;SDS011;33771;48.180;11.400;2022-10-10T05:38:42;122.53;;;11.47;;
48006;SDS011;33771;48.180;11.400;2022-10-10T05:41:08;74.13;;;9.80;;
48006;SDS011;33771;48.180;11.400;2022-10-10T05:43:34;41.50;;;8.97;;
48006;SDS011;33771;48.180;11.400;2022-10-10T05:46:00;11.27;;;8.87;;
48006;SDS011;33771;48.180;11.400;2022-10-10T05:48:26;42.50;;;8.90;;
48006;SDS011;33771;48.180;11.400;2022-10-10T05:50:53;70.23;;;8.90;;
48006;SDS011;33771;48.180;11.400;2022-10-10T05:53:23;11.30;;;8.67;;
48006;SDS011;33771;48.180;11.400;2022-10-10T05:55:50;10.23;;;7.90;;
48006;SDS011;33771;48.180;11.400;2022-10-10T05:58:16;21.33;;;8.27;;
48006;SDS011;33771;48.180;11.400;2022-10-10T06:00:42;65.03;;;9.20;;
48006;SDS011;33771;48.180;11.400;2022-10-10T06:03:10;94.33;;;10.27;;
48006;SDS011;33771;48.180;11.400;2022-10-10T06:05:38;57.13;;;8.63;;
48006;SDS011;33771;48.180;11.400;2022-10-10T06:08:05;9.13;;;7.50;;
48006;SDS011;33771;48.180;11.400;2022-10-10T06:10:39;106.47;;;8.70;;
48006;SDS011;33771;48.180;11.400;2022-10-10T06:13:07;86.10;;;8.87;;
48006;SDS011;33771;48.180;11.400;2022-10-10T06:15:37;9.03;;;7.67;;
48006;SDS011;33771;48.180;11.400;2022-10-10T06:18:04;10.10;;;7.97;;
48006;SDS011;33771;48.180;11.400;2022-10-10T06:20:29;13.93;;;6.83;;
48006;SDS011;33771;48.180;11.400;2022-10-10T06:22:57;11.93;;;7.93;;
48006;SDS011;33771;48.180;11.400;2022-10-10T06:25:24;8.03;;;6.87;;
48006;SDS011;33771;48.180;11.400;2022-10-10T06:27:50;10.37;;;7.37;;
48006;SDS011;33771;48.180;11.400;2022-10-10T06:30:15;9.60;;;7.30;;
48006;SDS011;33771;48.180;11.400;2022-10-10T06:32:41;8.60;;;6.37;;
48006;SDS011;33771;48.180;11.400;2022-10-10T06:35:07;7.73;;;6.93;;
48006;SDS011;33771;48.180;11.400;2022-10-10T06:37:33;7.93;;;7.03;;
48006;SDS011;33771;48.180;11.400;2022-10-10T06:39:58;9.10;;;7.03;;
48006;SDS011;33771;48.180;11.400;2022-10-10T06:42:24;7.73;;;6.93;;
48006;SDS011;33771;48.180;11.400;2022-10-10T06:44:49;7.57;;;6.77;;
48006;SDS011;33771;48.180;11.400;2022-10-10T06:47:15;7.53;;;6.67;;
48006;SDS011;33771;48.180;11.400;2022-10-10T06:49:41;7.53;;;6.03;;
48006;SDS011;33771;48.180;11.400;2022-10-10T06:52:06;10.47;;;6.07;;
48006;SDS011;33771;48.180;11.400;2022-10-10T06:54:32;7.70;;;6.10;;
48006;SDS011;33771;48.180;11.400;2022-10-10T06:56:58;11.03;;;6.07;;
48006;SDS011;33771;48.180;11.400;2022-10-10T06:59:23;6.70;;;5.87;;
48006;SDS011;33771;48.180;11.400;2022-10-10T07:01:49;9.50;;;5.80;;
48006;SDS011;33771;48.180;11.400;2022-10-10T07:04:14;7.27;;;4.90;;
48006;SDS011;33771;48.180;11.400;2022-10-10T07:06:40;9.13;;;6.70;;
48006;SDS011;33771;48.180;11.400;2022-10-10T07:09:05;10.47;;;7.00;;
48006;SDS011;33771;48.180;11.400;2022-10-10T07:11:31;9.43;;;6.50;;
48006;SDS011;33771;48.180;11.400;2022-10-10T07:13:57;13.03;;;8.20;;
48006;SDS011;33771;48.180;11.400;2022-10-10T07:16:22;10.60;;;7.20;;
48006;SDS011;33771;48.180;11.400;2022-10-10T07:18:48;10.70;;;5.87;;
48006;SDS011;33771;48.180;11.400;2022-10-10T07:21:14;7.88;;;5.65;;
48006;SDS011;33771;48.180;11.400;2022-10-10T07:23:39;13.70;;;5.35;;
48006;SDS011;33771;48.180;11.400;2022-10-10T07:26:06;9.07;;;5.07;;
48006;SDS011;33771;48.180;11.400;2022-10-10T07:28:34;8.10;;;5.63;;
48006;SDS011;33771;48.180;11.400;2022-10-10T07:31:05;8.95;;;5.25;;
48006;SDS011;33771;48.180;11.400;2022-10-10T07:33:34;10.73;;;5.68;;
48006;SDS011;33771;48.180;11.400;2022-10-10T07:36:02;8.77;;;4.72;;
48006;SDS011;33771;48.180;11.400;2022-10-10T07:38:28;6.97;;;4.60;;
48006;SDS011;33771;48.180;11.400;2022-10-10T07:40:54;8.48;;;5.45;;
48006;SDS011;33771;48.180;11.400;2022-10-10T07:43:20;9.95;;;4.78;;
48006;SDS011;33771;48.180;11.400;2022-10-10T07:45:45;8.90;;;5.05;;
48006;SDS011;33771;48.180;11.400;2022-10-10T07:48:11;10.70;;;5.25;;
48006;SDS011;33771;48.180;11.400;2022-10-10T07:50:40;7.32;;;4.32;;
48006;SDS011;33771;48.180;11.400;2022-10-10T07:53:07;6.28;;;4.85;;
48006;SDS011;33771;48.180;11.400;2022-10-10T07:55:33;4.90;;;3.70;;
48006;SDS011;33771;48.180;11.400;2022-10-10T07:57:59;5.70;;;3.75;;
48006;SDS011;33771;48.180;11.400;2022-10-10T08:00:27;4.95;;;3.67;;
48006;SDS011;33771;48.180;11.400;2022-10-10T08:02:53;9.93;;;4.22;;
48006;SDS011;33771;48.180;11.400;2022-10-10T08:05:19;6.65;;;3.80;;
48006;SDS011;33771;48.180;11.400;2022-10-10T08:07:45;9.90;;;3.67;;
48006;SDS011;33771;48.180;11.400;2022-10-10T08:10:11;6.57;;;4.00;;
48006;SDS011;33771;48.180;11.400;2022-10-10T08:12:37;6.10;;;3.67;;
48006;SDS011;33771;48.180;11.400;2022-10-10T08:15:03;5.85;;;3.22;;
48006;SDS011;33771;48.180;11.400;2022-10-10T08:17:30;7.78;;;2.92;;
48006;SDS011;33771;48.180;11.400;2022-10-10T08:19:56;6.93;;;3.38;;
48006;SDS011;33771;48.180;11.400;2022-10-10T08:22:21;7.63;;;3.28;;
48006;SDS011;33771;48.180;11.400;2022-10-10T08:24:47;5.80;;;3.00;;
48006;SDS011;33771;48.180;11.400;2022-10-10T08:27:12;5.85;;;3.13;;
48006;SDS011;33771;48.180;11.400;2022-10-10T08:29:41;7.78;;;2.88;;
48006;SDS011;33771;48.180;11.400;2022-10-10T08:32:07;6.38;;;2.75;;
48006;SDS011;33771;48.180;11.400;2022-10-10T08:34:32;6.63;;;3.03;;
48006;SDS011;33771;48.180;11.400;2022-10-10T08:36:58;7.72;;;2.60;;
48006;SDS011;33771;48.180;11.400;2022-10-10T08:39:24;8.57;;;2.60;;
48006;SDS011;33771;48.180;11.400;2022-10-10T08:41:56;6.45;;;2.70;;
48006;SDS011;33771;48.180;11.400;2022-10-10T08:44:25;3.40;;;2.00;;
48006;SDS011;33771;48.180;11.400;2022-10-10T08:49:37;5.60;;;2.03;;
48006;SDS011;33771;48.180;11.400;2022-10-10T08:52:33;5.40;;;2.00;;
48006;SDS011;33771;48.180;11.400;2022-10-10T08:55:34;2.35;;;1.70;;
48006;SDS011;33771;48.180;11.400;2022-10-10T08:58:06;4.72;;;2.00;;
48006;SDS011;33771;48.180;11.400;2022-10-10T09:00:48;6.82;;;2.13;;
48006;SDS011;33771;48.180;11.400;2022-10-10T09:09:35;4.13;;;1.80;;
48006;SDS011;33771;48.180;11.400;2022-10-10T09:11:44;5.95;;;2.60;;
48006;SDS011;33771;48.180;11.400;2022-10-10T09:21:58;5.10;;;2.20;;
48006;SDS011;33771;48.180;11.400;2022-10-10T09:24:36;5.88;;;2.15;;
48006;SDS011;33771;48.180;11.400;2022-10-10T09:27:15;6.18;;;2.15;;
48006;SDS011;33771;48.180;11.400;2022-10-10T09:29:50;10.75;;;2.00;;
48006;SDS011;33771;48.180;11.400;2022-10-10T09:32:26;5.88;;;2.05;;
48006;SDS011;33771;48.180;11.400;2022-10-10T09:35:05;6.07;;;1.92;;
48006;SDS011;33771;48.180;11.400;2022-10-10T09:37:39;7.70;;;2.45;;
48006;SDS011;33771;48.180;11.400;2022-10-10T09:40:23;7.70;;;2.05;;
48006;SDS011;33771;48.180;11.400;2022-10-10T09:42:59;5.95;;;2.40;;
48006;SDS011;33771;48.180;11.400;2022-10-10T09:45:35;15.15;;;3.10;;
48006;SDS011;33771;48.180;11.400;2022-10-10T09:48:07;6.93;;;2.10;;
48006;SDS011;33771;48.180;11.400;2022-10-10T09:50:34;5.10;;;2.03;;
48006;SDS011;33771;48.180;11.400;2022-10-10T09:53:01;8.70;;;2.08;;
48006;SDS011;33771;48.180;11.400;2022-10-10T09:55:36;6.70;;;1.83;;
48006;SDS011;33771;48.180;11.400;2022-10-10T09:58:09;6.40;;;1.90;;
48006;SDS011;33771;48.180;11.400;2022-10-10T10:01:08;6.43;;;1.92;;
48006;SDS011;33771;48.180;11.400;2022-10-10T10:03:37;7.88;;;2.20;;
48006;SDS011;33771;48.180;11.400;2022-10-10T10:06:03;7.25;;;2.33;;
48006;SDS011;33771;48.180;11.400;2022-10-10T10:08:34;8.55;;;2.50;;
48006;SDS011;33771;48.180;11.400;2022-10-10T10:11:01;8.10;;;2.50;;
48006;SDS011;33771;48.180;11.400;2022-10-10T10:13:32;9.13;;;2.50;;
48006;SDS011;33771;48.180;11.400;2022-10-10T10:16:03;7.22;;;2.25;;
48006;SDS011;33771;48.180;11.400;2022-10-10T10:18:30;6.18;;;2.10;;
48006;SDS011;33771;48.180;11.400;2022-10-10T10:23:31;6.53;;;2.10;;
48006;SDS011;33771;48.180;11.400;2022-10-10T10:25:59;7.80;;;2.25;;
48006;SDS011;33771;48.180;11.400;2022-10-10T10:28:26;7.32;;;2.00;;
48006;SDS011;33771;48.180;11.400;2022-10-10T10:30:52;4.63;;;1.98;;
48006;SDS011;33771;48.180;11.400;2022-10-10T10:33:26;7.60;;;2.33;;
48006;SDS011;33771;48.180;11.400;2022-10-10T10:36:02;5.72;;;2.13;;
48006;SDS011;33771;48.180;11.400;2022-10-10T10:38:54;5.45;;;1.83;;
48006;SDS011;33771;48.180;11.400;2022-10-10T10:49:35;7.78;;;2.25;;
48006;SDS011;33771;48.180;11.400;2022-10-10T10:52:17;6.07;;;1.92;;
48006;SDS011;33771;48.180;11.400;2022-10-10T10:57:48;5.70;;;2.22;;
48006;SDS011;33771;48.180;11.400;2022-10-10T11:00:40;7.30;;;2.17;;
48006;SDS011;33771;48.180;11.400;2022-10-10T11:03:17;8.05;;;2.20;;
48006;SDS011;33771;48.180;11.400;2022-10-10T11:05:55;7.22;;;3.03;;
48006;SDS011;33771;48.180;11.400;2022-10-10T11:19:57;7.10;;;2.00;;
48006;SDS011;33771;48.180;11.400;2022-10-10T11:22:40;6.68;;;2.10;;
48006;SDS011;33771;48.180;11.400;2022-10-10T11:25:21;6.05;;;2.20;;
48006;SDS011;33771;48.180;11.400;2022-10-10T11:27:54;5.20;;;2.00;;
48006;SDS011;33771;48.180;11.400;2022-10-10T11:30:22;5.50;;;2.25;;
48006;SDS011;33771;48.180;11.400;2022-10-10T11:32:53;7.22;;;2.08;;
48006;SDS011;33771;48.180;11.400;2022-10-10T11:38:24;5.80;;;1.63;;
48006;SDS011;33771;48.180;11.400;2022-10-10T11:41:04;4.95;;;1.80;;
48006;SDS011;33771;48.180;11.400;2022-10-10T11:43:55;3.90;;;2.08;;
48006;SDS011;33771;48.180;11.400;2022-10-10T11:56:52;6.00;;;1.90;;
48006;SDS011;33771;48.180;11.400;2022-10-10T11:59:24;8.75;;;1.80;;
48006;SDS011;33771;48.180;11.400;2022-10-10T12:02:15;8.25;;;1.90;;
48006;SDS011;33771;48.180;11.400;2022-10-10T12:04:42;6.00;;;2.20;;
48006;SDS011;33771;48.180;11.400;2022-10-10T12:07:13;6.60;;;1.80;;
48006;SDS011;33771;48.180;11.400;2022-10-10T12:09:44;3.90;;;1.90;;
48006;SDS011;33771;48.180;11.400;2022-10-10T12:12:23;5.38;;;2.17;;
48006;SDS011;33771;48.180;11.400;2022-10-10T12:14:57;5.15;;;1.70;;
48006;SDS011;33771;48.180;11.400;2022-10-10T12:17:26;9.43;;;1.98;;
48006;SDS011;33771;48.180;11.400;2022-10-10T12:20:06;7.28;;;2.30;;
48006;SDS011;33771;48.180;11.400;2022-10-10T12:25:35;6.53;;;2.00;;
48006;SDS011;33771;48.180;11.400;2022-10-10T12:31:16;5.45;;;1.90;;
48006;SDS011;33771;48.180;11.400;2022-10-10T12:55:05;5.07;;;1.90;;
48006;SDS011;33771;48.180;11.400;2022-10-10T12:57:53;8.82;;;2.00;;
48006;SDS011;33771;48.180;11.400;2022-10-10T13:00:22;8.95;;;2.30;;
48006;SDS011;33771;48.180;11.400;2022-10-10T13:03:00;8.75;;;2.30;;
48006;SDS011;33771;48.180;11.400;2022-10-10T13:05:33;8.75;;;2.53;;
48006;SDS011;33771;48.180;11.400;2022-10-10T13:08:10;4.10;;;1.80;;
48006;SDS011;33771;48.180;11.400;2022-10-10T13:10:38;5.07;;;2.30;;
48006;SDS011;33771;48.180;11.400;2022-10-10T13:15:31;6.60;;;2.55;;
48006;SDS011;33771;48.180;11.400;2022-10-10T13:17:58;7.20;;;1.80;;
48006;SDS011;33771;48.180;11.400;2022-10-10T13:23:05;4.97;;;2.17;;
48006;SDS011;33771;48.180;11.400;2022-10-10T13:25:35;7.07;;;2.03;;
48006;SDS011;33771;48.180;11.400;2022-10-10T13:28:03;4.28;;;1.70;;
48006;SDS011;33771;48.180;11.400;2022-10-10T13:30:39;3.97;;;1.60;;
48006;SDS011;33771;48.180;11.400;2022-10-10T13:33:05;9.15;;;2.05;;
48006;SDS011;33771;48.180;11.400;2022-10-10T13:35:42;6.68;;;2.33;;
48006;SDS011;33771;48.180;11.400;2022-10-10T13:38:09;5.43;;;2.03;;
48006;SDS011;33771;48.180;11.400;2022-10-10T13:40:36;4.88;;;1.80;;
48006;SDS011;33771;48.180;11.400;2022-10-10T13:43:04;6.35;;;2.08;;
48006;SDS011;33771;48.180;11.400;2022-10-10T13:45:31;5.13;;;1.90;;
48006;SDS011;33771;48.180;11.400;2022-10-10T13:50:33;7.28;;;2.20;;
48006;SDS011;33771;48.180;11.400;2022-10-10T13:56:05;6.75;;;2.00;;
48006;SDS011;33771;48.180;11.400;2022-10-10T14:01:32;9.00;;;2.20;;
48006;SDS011;33771;48.180;11.400;2022-10-10T14:04:07;5.28;;;2.20;;
48006;SDS011;33771;48.180;11.400;2022-10-10T14:06:59;5.20;;;2.03;;
48006;SDS011;33771;48.180;11.400;2022-10-10T14:09:38;7.78;;;2.05;;
48006;SDS011;33771;48.180;11.400;2022-10-10T14:12:07;4.72;;;1.80;;
48006;SDS011;33771;48.180;11.400;2022-10-10T14:14:45;5.30;;;1.70;;
48006;SDS011;33771;48.180;11.400;2022-10-10T14:17:12;3.55;;;1.70;;
48006;SDS011;33771;48.180;11.400;2022-10-10T14:19:38;6.47;;;2.67;;
48006;SDS011;33771;48.180;11.400;2022-10-10T14:22:03;7.13;;;1.75;;
48006;SDS011;33771;48.180;11.400;2022-10-10T14:24:29;4.82;;;1.77;;
48006;SDS011;33771;48.180;11.400;2022-10-10T14:26:55;4.03;;;1.63;;
48006;SDS011;33771;48.180;11.400;2022-10-10T14:29:20;5.20;;;1.85;;
48006;SDS011;33771;48.180;11.400;2022-10-10T14:31:47;8.13;;;2.03;;
48006;SDS011;33771;48.180;11.400;2022-10-10T14:34:13;5.97;;;1.80;;
48006;SDS011;33771;48.180;11.400;2022-10-10T14:36:41;7.18;;;2.33;;
48006;SDS011;33771;48.180;11.400;2022-10-10T14:39:15;9.65;;;2.03;;
48006;SDS011;33771;48.180;11.400;2022-10-10T14:41:42;10.85;;;2.10;;
48006;SDS011;33771;48.180;11.400;2022-10-10T14:44:08;9.88;;;2.50;;
48006;SDS011;33771;48.180;11.400;2022-10-10T14:46:34;9.93;;;1.90;;
48006;SDS011;33771;48.180;11.400;2022-10-10T14:49:00;4.50;;;1.88;;
48006;SDS011;33771;48.180;11.400;2022-10-10T14:51:26;10.27;;;3.00;;
48006;SDS011;33771;48.180;11.400;2022-10-10T14:53:52;19.83;;;2.78;;
48006;SDS011;33771;48.180;11.400;2022-10-10T14:56:18;8.05;;;2.58;;
48006;SDS011;33771;48.180;11.400;2022-10-10T14:58:43;7.18;;;2.35;;
48006;SDS011;33771;48.180;11.400;2022-10-10T15:01:09;5.63;;;2.00;;
48006;SDS011;33771;48.180;11.400;2022-10-10T15:03:34;7.45;;;2.75;;
48006;SDS011;33771;48.180;11.400;2022-10-10T15:06:00;8.23;;;2.35;;
48006;SDS011;33771;48.180;11.400;2022-10-10T15:08:25;5.20;;;2.45;;
48006;SDS011;33771;48.180;11.400;2022-10-10T15:10:51;8.63;;;2.75;;
48006;SDS011;33771;48.180;11.400;2022-10-10T15:13:17;7.00;;;2.50;;
48006;SDS011;33771;48.180;11.400;2022-10-10T15:15:42;7.80;;;3.05;;
48006;SDS011;33771;48.180;11.400;2022-10-10T15:18:08;7.82;;;2.70;;
48006;SDS011;33771;48.180;11.400;2022-10-10T15:20:34;5.65;;;2.30;;
48006;SDS011;33771;48.180;11.400;2022-10-10T15:23:02;10.30;;;3.13;;
48006;SDS011;33771;48.180;11.400;2022-10-10T15:25:29;9.48;;;2.55;;
48006;SDS011;33771;48.180;11.400;2022-10-10T15:27:55;12.15;;;2.75;;
48006;SDS011;33771;48.180;11.400;2022-10-10T15:30:21;6.70;;;2.53;;
48006;SDS011;33771;48.180;11.400;2022-10-10T15:32:47;7.55;;;2.78;;
48006;SDS011;33771;48.180;11.400;2022-10-10T15:35:16;8.85;;;2.65;;
48006;SDS011;33771;48.180;11.400;2022-10-10T15:37:44;6.65;;;2.75;;
48006;SDS011;33771;48.180;11.400;2022-10-10T15:40:10;8.95;;;3.10;;
48006;SDS011;33771;48.180;11.400;2022-10-10T15:42:37;5.55;;;2.40;;
48006;SDS011;33771;48.180;11.400;2022-10-10T15:45:03;7.88;;;2.55;;
48006;SDS011;33771;48.180;11.400;2022-10-10T15:47:29;8.73;;;2.85;;
48006;SDS011;33771;48.180;11.400;2022-10-10T15:49:55;13.85;;;3.40;;
48006;SDS011;33771;48.180;11.400;2022-10-10T15:52:21;10.35;;;3.35;;
48006;SDS011;33771;48.180;11.400;2022-10-10T15:54:50;5.93;;;2.53;;
48006;SDS011;33771;48.180;11.400;2022-10-10T15:57:17;8.77;;;2.83;;
48006;SDS011;33771;48.180;11.400;2022-10-10T15:59:43;10.45;;;2.83;;
48006;SDS011;33771;48.180;11.400;2022-10-10T16:02:10;10.27;;;2.80;;
48006;SDS011;33771;48.180;11.400;2022-10-10T16:04:36;8.90;;;3.08;;
48006;SDS011;33771;48.180;11.400;2022-10-10T16:07:02;13.65;;;2.97;;
48006;SDS011;33771;48.180;11.400;2022-10-10T16:09:29;9.13;;;3.47;;
48006;SDS011;33771;48.180;11.400;2022-10-10T16:11:56;9.90;;;3.47;;
48006;SDS011;33771;48.180;11.400;2022-10-10T16:14:21;10.73;;;3.78;;
48006;SDS011;33771;48.180;11.400;2022-10-10T16:16:47;14.00;;;4.65;;
48006;SDS011;33771;48.180;11.400;2022-10-10T16:19:12;13.55;;;3.70;;
48006;SDS011;33771;48.180;11.400;2022-10-10T16:21:38;12.50;;;3.83;;
48006;SDS011;33771;48.180;11.400;2022-10-10T16:24:03;12.32;;;5.63;;
48006;SDS011;33771;48.180;11.400;2022-10-10T16:26:30;10.40;;;4.07;;
48006;SDS011;33771;48.180;11.400;2022-10-10T16:28:57;9.55;;;3.88;;
48006;SDS011;33771;48.180;11.400;2022-10-10T16:31:24;12.68;;;4.20;;